sensor_id;sensor_type;location;lat;lon;timestamp;P1;durP1;ratioP1;P2;durP2;ratioP2
64282;SDS011;50497;50.720;-2.084;2022-08-30T00:01:13;5.90;;;2.20;;
64282;SDS011;50497;50.720;-2.084;2022-08-30T00:03:44;6.03;;;2.22;;
64282;SDS011;50497;50.720;-2.084;2022-08-30T00:08:42;6.65;;;2.20;;
64282;SDS011;50497;50.720;-2.084;2022-08-30T00:11:10;6.25;;;2.40;;
64282;SDS011;50497;50.720;-2.084;2022-08-30T00:13:38;6.15;;;2.38;;
64282;SDS011;50497;50.720;-2.084;2022-08-30T00:16:07;6.72;;;2.35;;
64282;SDS011;50497;50.720;-2.084;2022-08-30T00:18:33;6.13;;;2.28;;
64282;SDS011;50497;50.720;-2.084;2022-08-30T00:21:00;5.13;;;2.20;;
64282;SDS011;50497;50.720;-2.084;2022-08-30T00:23:26;5.53;;;2.50;;
64282;SDS011;50497;50.720;-2.084;2022-08-30T00:25:52;7.13;;;2.78;;
64282;SDS011;50497;50.720;-2.084;2022-08-30T00:28:18;7.25;;;2.47;;
64282;SDS011;50497;50.720;-2.084;2022-08-30T00:30:44;6.05;;;2.40;;
64282;SDS011;50497;50.720;-2.084;2022-08-30T00:33:11;5.85;;;2.35;;
64282;SDS011;50497;50.720;-2.084;2022-08-30T00:35:38;5.75;;;2.40;;
64282;SDS011;50497;50.720;-2.084;2022-08-30T00:38:04;6.80;;;2.25;;
64282;SDS011;50497;50.720;-2.084;2022-08-30T00:40:32;7.07;;;2.20;;
64282;SDS011;50497;50.720;-2.084;2022-08-30T00:45:29;6.40;;;2.45;;
64282;SDS011;50497;50.720;-2.084;2022-08-30T00:47:59;6.47;;;2.38;;
64282;SDS011;50497;50.720;-2.084;2022-08-30T00:50:27;7.05;;;2.75;;
64282;SDS011;50497;50.720;-2.084;2022-08-30T00:52:57;5.38;;;2.35;;
64282;SDS011;50497;50.720;-2.084;2022-08-30T00:55:24;5.55;;;2.33;;
64282;SDS011;50497;50.720;-2.084;2022-08-30T00:57:52;6.63;;;2.25;;
64282;SDS011;50497;50.720;-2.084;2022-08-30T01:00:22;6.18;;;2.30;;
64282;SDS011;50497;50.720;-2.084;2022-08-30T01:02:48;6.90;;;2.40;;
64282;SDS011;50497;50.720;-2.084;2022-08-30T01:05:14;5.43;;;2.30;;
64282;SDS011;50497;50.720;-2.084;2022-08-30T01:07:41;6.60;;;2.53;;
64282;SDS011;50497;50.720;-2.084;2022-08-30T01:10:08;7.47;;;2.60;;
64282;SDS011;50497;50.720;-2.084;2022-08-30T01:12:36;5.47;;;2.33;;
64282;SDS011;50497;50.720;-2.084;2022-08-30T01:15:03;5.78;;;2.63;;
64282;SDS011;50497;50.720;-2.084;2022-08-30T01:17:32;7.28;;;2.65;;
64282;SDS011;50497;50.720;-2.084;2022-08-30T01:19:59;7.13;;;2.40;;
64282;SDS011;50497;50.720;-2.084;2022-08-30T01:25:13;6.60;;;2.42;;
64282;SDS011;50497;50.720;-2.084;2022-08-30T01:27:46;6.90;;;2.60;;
64282;SDS011;50497;50.720;-2.084;2022-08-30T01:30:17;7.03;;;2.67;;
64282;SDS011;50497;50.720;-2.084;2022-08-30T01:32:44;6.93;;;2.17;;
64282;SDS011;50497;50.720;-2.084;2022-08-30T01:35:12;7.93;;;2.42;;
64282;SDS011;50497;50.720;-2.084;2022-08-30T01:37:41;6.65;;;2.70;;
64282;SDS011;50497;50.720;-2.084;2022-08-30T01:40:08;5.72;;;2.25;;
64282;SDS011;50497;50.720;-2.084;2022-08-30T01:42:35;6.68;;;2.25;;
64282;SDS011;50497;50.720;-2.084;2022-08-30T01:45:00;7.63;;;2.70;;
64282;SDS011;50497;50.720;-2.084;2022-08-30T01:47:27;5.50;;;2.20;;
64282;SDS011;50497;50.720;-2.084;2022-08-30T01:49:53;7.15;;;2.63;;
64282;SDS011;50497;50.720;-2.084;2022-08-30T01:52:18;5.70;;;2.50;;
64282;SDS011;50497;50.720;-2.084;2022-08-30T01:54:45;6.53;;;2.47;;
64282;SDS011;50497;50.720;-2.084;2022-08-30T01:57:13;6.78;;;2.30;;
64282;SDS011;50497;50.720;-2.084;2022-08-30T01:59:41;6.65;;;2.20;;
64282;SDS011;50497;50.720;-2.084;2022-08-30T02:02:11;7.38;;;2.60;;
64282;SDS011;50497;50.720;-2.084;2022-08-30T02:04:40;5.85;;;2.13;;
64282;SDS011;50497;50.720;-2.084;2022-08-30T02:07:07;6.18;;;2.42;;
64282;SDS011;50497;50.720;-2.084;2022-08-30T02:09:32;7.25;;;2.63;;
64282;SDS011;50497;50.720;-2.084;2022-08-30T02:11:58;6.45;;;2.40;;
64282;SDS011;50497;50.720;-2.084;2022-08-30T02:14:24;7.88;;;2.65;;
64282;SDS011;50497;50.720;-2.084;2022-08-30T02:16:51;6.13;;;2.30;;
64282;SDS011;50497;50.720;-2.084;2022-08-30T02:19:16;7.50;;;2.78;;
64282;SDS011;50497;50.720;-2.084;2022-08-30T02:21:42;6.72;;;2.72;;
64282;SDS011;50497;50.720;-2.084;2022-08-30T02:24:07;5.97;;;2.50;;
64282;SDS011;50497;50.720;-2.084;2022-08-30T02:26:34;5.60;;;2.50;;
64282;SDS011;50497;50.720;-2.084;2022-08-30T02:29:00;6.13;;;2.35;;
64282;SDS011;50497;50.720;-2.084;2022-08-30T02:31:29;7.70;;;2.75;;
64282;SDS011;50497;50.720;-2.084;2022-08-30T02:33:54;7.85;;;2.75;;
64282;SDS011;50497;50.720;-2.084;2022-08-30T02:36:21;6.90;;;2.35;;
64282;SDS011;50497;50.720;-2.084;2022-08-30T02:38:48;6.93;;;2.80;;
64282;SDS011;50497;50.720;-2.084;2022-08-30T02:41:14;8.32;;;2.70;;
64282;SDS011;50497;50.720;-2.084;2022-08-30T02:43:40;6.85;;;2.90;;
64282;SDS011;50497;50.720;-2.084;2022-08-30T02:46:06;7.18;;;2.67;;
64282;SDS011;50497;50.720;-2.084;2022-08-30T02:48:32;7.40;;;2.42;;
64282;SDS011;50497;50.720;-2.084;2022-08-30T02:51:02;6.78;;;2.35;;
64282;SDS011;50497;50.720;-2.084;2022-08-30T02:53:32;7.97;;;2.63;;
64282;SDS011;50497;50.720;-2.084;2022-08-30T02:55:59;6.75;;;2.75;;
64282;SDS011;50497;50.720;-2.084;2022-08-30T02:58:25;8.75;;;2.78;;
64282;SDS011;50497;50.720;-2.084;2022-08-30T03:00:50;8.15;;;2.65;;
64282;SDS011;50497;50.720;-2.084;2022-08-30T03:03:16;5.85;;;2.85;;
64282;SDS011;50497;50.720;-2.084;2022-08-30T03:05:41;7.45;;;2.75;;
64282;SDS011;50497;50.720;-2.084;2022-08-30T03:08:07;7.93;;;3.03;;
64282;SDS011;50497;50.720;-2.084;2022-08-30T03:10:33;6.32;;;2.63;;
64282;SDS011;50497;50.720;-2.084;2022-08-30T03:12:59;9.15;;;2.70;;
64282;SDS011;50497;50.720;-2.084;2022-08-30T03:15:25;8.02;;;2.65;;
64282;SDS011;50497;50.720;-2.084;2022-08-30T03:17:52;6.93;;;2.58;;
64282;SDS011;50497;50.720;-2.084;2022-08-30T03:20:18;6.88;;;2.65;;
64282;SDS011;50497;50.720;-2.084;2022-08-30T03:22:44;9.05;;;2.72;;
64282;SDS011;50497;50.720;-2.084;2022-08-30T03:25:10;7.82;;;2.83;;
64282;SDS011;50497;50.720;-2.084;2022-08-30T03:27:37;8.48;;;3.00;;
64282;SDS011;50497;50.720;-2.084;2022-08-30T03:30:03;7.30;;;2.50;;
64282;SDS011;50497;50.720;-2.084;2022-08-30T03:32:30;7.93;;;2.72;;
64282;SDS011;50497;50.720;-2.084;2022-08-30T03:34:56;6.82;;;2.70;;
64282;SDS011;50497;50.720;-2.084;2022-08-30T03:37:22;8.27;;;2.75;;
64282;SDS011;50497;50.720;-2.084;2022-08-30T03:39:48;6.88;;;2.60;;
64282;SDS011;50497;50.720;-2.084;2022-08-30T03:42:14;7.53;;;2.70;;
64282;SDS011;50497;50.720;-2.084;2022-08-30T03:44:39;7.32;;;2.83;;
64282;SDS011;50497;50.720;-2.084;2022-08-30T03:47:05;8.93;;;2.80;;
64282;SDS011;50497;50.720;-2.084;2022-08-30T03:49:32;8.57;;;2.90;;
64282;SDS011;50497;50.720;-2.084;2022-08-30T03:51:58;7.13;;;2.75;;
64282;SDS011;50497;50.720;-2.084;2022-08-30T03:54:23;7.90;;;2.95;;
64282;SDS011;50497;50.720;-2.084;2022-08-30T03:56:50;9.35;;;3.10;;
64282;SDS011;50497;50.720;-2.084;2022-08-30T03:59:16;7.28;;;2.80;;
64282;SDS011;50497;50.720;-2.084;2022-08-30T04:01:41;8.98;;;2.80;;
64282;SDS011;50497;50.720;-2.084;2022-08-30T04:04:07;8.20;;;2.72;;
64282;SDS011;50497;50.720;-2.084;2022-08-30T04:06:33;9.00;;;2.92;;
64282;SDS011;50497;50.720;-2.084;2022-08-30T04:08:59;7.72;;;3.03;;
64282;SDS011;50497;50.720;-2.084;2022-08-30T04:11:24;7.55;;;2.67;;
64282;SDS011;50497;50.720;-2.084;2022-08-30T04:13:50;11.05;;;3.13;;
64282;SDS011;50497;50.720;-2.084;2022-08-30T04:16:19;7.28;;;2.78;;
64282;SDS011;50497;50.720;-2.084;2022-08-30T04:18:45;8.20;;;2.85;;
64282;SDS011;50497;50.720;-2.084;2022-08-30T04:21:11;8.50;;;3.00;;
64282;SDS011;50497;50.720;-2.084;2022-08-30T04:23:36;6.38;;;2.90;;
64282;SDS011;50497;50.720;-2.084;2022-08-30T04:26:03;8.05;;;2.70;;
64282;SDS011;50497;50.720;-2.084;2022-08-30T04:28:29;8.73;;;2.85;;
64282;SDS011;50497;50.720;-2.084;2022-08-30T04:30:54;7.57;;;3.00;;
64282;SDS011;50497;50.720;-2.084;2022-08-30T04:33:20;6.13;;;2.83;;
64282;SDS011;50497;50.720;-2.084;2022-08-30T04:35:46;7.05;;;2.67;;
64282;SDS011;50497;50.720;-2.084;2022-08-30T04:38:13;7.15;;;2.80;;
64282;SDS011;50497;50.720;-2.084;2022-08-30T04:40:40;10.98;;;3.10;;
64282;SDS011;50497;50.720;-2.084;2022-08-30T04:43:07;8.23;;;2.55;;
64282;SDS011;50497;50.720;-2.084;2022-08-30T04:45:32;6.95;;;2.78;;
64282;SDS011;50497;50.720;-2.084;2022-08-30T04:47:58;8.07;;;2.78;;
64282;SDS011;50497;50.720;-2.084;2022-08-30T04:50:24;6.65;;;2.67;;
64282;SDS011;50497;50.720;-2.084;2022-08-30T04:52:50;7.95;;;2.70;;
64282;SDS011;50497;50.720;-2.084;2022-08-30T04:55:15;7.97;;;2.70;;
64282;SDS011;50497;50.720;-2.084;2022-08-30T04:57:42;5.72;;;2.47;;
64282;SDS011;50497;50.720;-2.084;2022-08-30T05:00:09;8.88;;;2.90;;
64282;SDS011;50497;50.720;-2.084;2022-08-30T05:02:39;6.88;;;2.70;;
64282;SDS011;50497;50.720;-2.084;2022-08-30T05:05:06;8.07;;;2.92;;
64282;SDS011;50497;50.720;-2.084;2022-08-30T05:07:52;6.20;;;2.50;;
64282;SDS011;50497;50.720;-2.084;2022-08-30T05:10:17;8.10;;;2.80;;
64282;SDS011;50497;50.720;-2.084;2022-08-30T05:12:43;6.97;;;2.67;;
64282;SDS011;50497;50.720;-2.084;2022-08-30T05:15:09;6.88;;;2.53;;
64282;SDS011;50497;50.720;-2.084;2022-08-30T05:17:37;5.28;;;2.50;;
64282;SDS011;50497;50.720;-2.084;2022-08-30T05:20:07;6.97;;;2.50;;
64282;SDS011;50497;50.720;-2.084;2022-08-30T05:22:35;7.75;;;2.70;;
64282;SDS011;50497;50.720;-2.084;2022-08-30T05:25:01;6.90;;;2.50;;
64282;SDS011;50497;50.720;-2.084;2022-08-30T05:27:29;10.75;;;2.78;;
64282;SDS011;50497;50.720;-2.084;2022-08-30T05:29:55;6.93;;;2.70;;
64282;SDS011;50497;50.720;-2.084;2022-08-30T05:32:20;8.50;;;2.47;;
64282;SDS011;50497;50.720;-2.084;2022-08-30T05:34:46;9.57;;;2.83;;
64282;SDS011;50497;50.720;-2.084;2022-08-30T05:37:12;9.00;;;2.90;;
64282;SDS011;50497;50.720;-2.084;2022-08-30T05:39:38;6.60;;;2.63;;
64282;SDS011;50497;50.720;-2.084;2022-08-30T05:42:03;6.70;;;2.80;;
64282;SDS011;50497;50.720;-2.084;2022-08-30T05:44:29;9.93;;;2.63;;
64282;SDS011;50497;50.720;-2.084;2022-08-30T05:46:55;7.82;;;2.75;;
64282;SDS011;50497;50.720;-2.084;2022-08-30T05:49:21;10.02;;;3.00;;
64282;SDS011;50497;50.720;-2.084;2022-08-30T05:51:46;8.57;;;3.20;;
64282;SDS011;50497;50.720;-2.084;2022-08-30T05:54:12;10.57;;;4.10;;
64282;SDS011;50497;50.720;-2.084;2022-08-30T05:56:39;11.75;;;4.25;;
64282;SDS011;50497;50.720;-2.084;2022-08-30T05:59:07;10.88;;;3.70;;
64282;SDS011;50497;50.720;-2.084;2022-08-30T06:01:34;11.20;;;3.97;;
64282;SDS011;50497;50.720;-2.084;2022-08-30T06:04:02;6.90;;;3.03;;
64282;SDS011;50497;50.720;-2.084;2022-08-30T06:06:30;8.05;;;3.25;;
64282;SDS011;50497;50.720;-2.084;2022-08-30T06:08:58;7.93;;;3.15;;
64282;SDS011;50497;50.720;-2.084;2022-08-30T06:11:24;9.90;;;3.45;;
64282;SDS011;50497;50.720;-2.084;2022-08-30T06:13:51;8.23;;;3.05;;
64282;SDS011;50497;50.720;-2.084;2022-08-30T06:16:19;7.40;;;2.97;;
64282;SDS011;50497;50.720;-2.084;2022-08-30T06:18:50;8.32;;;3.15;;
64282;SDS011;50497;50.720;-2.084;2022-08-30T06:21:19;11.32;;;3.67;;
64282;SDS011;50497;50.720;-2.084;2022-08-30T06:23:49;6.88;;;2.92;;
64282;SDS011;50497;50.720;-2.084;2022-08-30T06:26:16;7.28;;;3.00;;
64282;SDS011;50497;50.720;-2.084;2022-08-30T06:28:42;6.75;;;3.15;;
64282;SDS011;50497;50.720;-2.084;2022-08-30T06:31:08;8.60;;;3.10;;
64282;SDS011;50497;50.720;-2.084;2022-08-30T06:33:35;7.88;;;2.72;;
64282;SDS011;50497;50.720;-2.084;2022-08-30T06:36:09;8.35;;;2.75;;
64282;SDS011;50497;50.720;-2.084;2022-08-30T06:38:36;9.57;;;2.90;;
64282;SDS011;50497;50.720;-2.084;2022-08-30T06:41:07;11.05;;;3.00;;
64282;SDS011;50497;50.720;-2.084;2022-08-30T06:43:34;8.50;;;3.00;;
64282;SDS011;50497;50.720;-2.084;2022-08-30T06:46:04;8.52;;;2.70;;
64282;SDS011;50497;50.720;-2.084;2022-08-30T06:48:34;8.27;;;2.83;;
64282;SDS011;50497;50.720;-2.084;2022-08-30T06:51:00;9.32;;;2.60;;
64282;SDS011;50497;50.720;-2.084;2022-08-30T06:53:26;6.45;;;2.40;;
64282;SDS011;50497;50.720;-2.084;2022-08-30T06:55:58;6.32;;;2.35;;
64282;SDS011;50497;50.720;-2.084;2022-08-30T06:58:25;6.50;;;2.40;;
64282;SDS011;50497;50.720;-2.084;2022-08-30T07:00:50;7.05;;;2.40;;
64282;SDS011;50497;50.720;-2.084;2022-08-30T07:03:16;7.97;;;2.60;;
64282;SDS011;50497;50.720;-2.084;2022-08-30T07:05:42;10.27;;;2.53;;
64282;SDS011;50497;50.720;-2.084;2022-08-30T07:08:07;6.72;;;2.67;;
64282;SDS011;50497;50.720;-2.084;2022-08-30T07:10:33;8.05;;;2.35;;
64282;SDS011;50497;50.720;-2.084;2022-08-30T07:13:02;6.60;;;2.60;;
64282;SDS011;50497;50.720;-2.084;2022-08-30T07:15:30;5.53;;;2.50;;
64282;SDS011;50497;50.720;-2.084;2022-08-30T07:17:55;8.35;;;2.70;;
64282;SDS011;50497;50.720;-2.084;2022-08-30T07:20:39;7.40;;;2.80;;
64282;SDS011;50497;50.720;-2.084;2022-08-30T07:23:05;7.25;;;2.60;;
64282;SDS011;50497;50.720;-2.084;2022-08-30T07:25:30;6.60;;;2.40;;
64282;SDS011;50497;50.720;-2.084;2022-08-30T07:27:58;10.88;;;2.50;;
64282;SDS011;50497;50.720;-2.084;2022-08-30T07:30:23;9.88;;;2.70;;
64282;SDS011;50497;50.720;-2.084;2022-08-30T07:32:48;7.32;;;2.63;;
64282;SDS011;50497;50.720;-2.084;2022-08-30T07:35:14;6.68;;;2.53;;
64282;SDS011;50497;50.720;-2.084;2022-08-30T07:37:40;6.63;;;2.60;;
64282;SDS011;50497;50.720;-2.084;2022-08-30T07:40:06;6.20;;;2.38;;
64282;SDS011;50497;50.720;-2.084;2022-08-30T07:42:33;5.95;;;1.92;;
64282;SDS011;50497;50.720;-2.084;2022-08-30T07:44:58;6.47;;;2.35;;
64282;SDS011;50497;50.720;-2.084;2022-08-30T07:47:24;6.15;;;2.30;;
64282;SDS011;50497;50.720;-2.084;2022-08-30T07:49:49;6.13;;;2.03;;
64282;SDS011;50497;50.720;-2.084;2022-08-30T07:52:15;7.80;;;2.40;;
64282;SDS011;50497;50.720;-2.084;2022-08-30T07:54:41;7.13;;;2.35;;
64282;SDS011;50497;50.720;-2.084;2022-08-30T07:57:07;9.18;;;2.70;;
64282;SDS011;50497;50.720;-2.084;2022-08-30T07:59:33;6.13;;;1.98;;
64282;SDS011;50497;50.720;-2.084;2022-08-30T08:04:23;4.97;;;2.10;;
64282;SDS011;50497;50.720;-2.084;2022-08-30T08:06:49;7.38;;;2.53;;
64282;SDS011;50497;50.720;-2.084;2022-08-30T08:11:40;5.90;;;2.20;;
64282;SDS011;50497;50.720;-2.084;2022-08-30T08:16:33;6.53;;;1.98;;
64282;SDS011;50497;50.720;-2.084;2022-08-30T08:19:00;5.78;;;2.20;;
64282;SDS011;50497;50.720;-2.084;2022-08-30T08:23:52;7.05;;;2.50;;
64282;SDS011;50497;50.720;-2.084;2022-08-30T08:26:18;4.70;;;2.03;;
64282;SDS011;50497;50.720;-2.084;2022-08-30T08:28:45;7.13;;;2.03;;
64282;SDS011;50497;50.720;-2.084;2022-08-30T08:31:15;5.95;;;2.25;;
64282;SDS011;50497;50.720;-2.084;2022-08-30T08:33:43;5.60;;;2.33;;
64282;SDS011;50497;50.720;-2.084;2022-08-30T08:36:09;5.30;;;2.10;;
64282;SDS011;50497;50.720;-2.084;2022-08-30T08:38:35;5.38;;;2.25;;
64282;SDS011;50497;50.720;-2.084;2022-08-30T08:43:35;8.02;;;2.53;;
64282;SDS011;50497;50.720;-2.084;2022-08-30T08:46:10;6.60;;;2.17;;
64282;SDS011;50497;50.720;-2.084;2022-08-30T08:48:50;8.65;;;2.40;;
64282;SDS011;50497;50.720;-2.084;2022-08-30T08:51:25;7.15;;;2.42;;
64282;SDS011;50497;50.720;-2.084;2022-08-30T08:56:49;6.82;;;2.60;;
64282;SDS011;50497;50.720;-2.084;2022-08-30T08:59:15;7.53;;;2.50;;
64282;SDS011;50497;50.720;-2.084;2022-08-30T09:01:41;10.55;;;2.65;;
64282;SDS011;50497;50.720;-2.084;2022-08-30T09:04:10;5.35;;;1.95;;
64282;SDS011;50497;50.720;-2.084;2022-08-30T09:09:20;5.90;;;2.30;;
64282;SDS011;50497;50.720;-2.084;2022-08-30T09:12:03;6.90;;;2.20;;
64282;SDS011;50497;50.720;-2.084;2022-08-30T09:14:33;5.72;;;2.25;;
64282;SDS011;50497;50.720;-2.084;2022-08-30T09:17:03;6.20;;;2.60;;
64282;SDS011;50497;50.720;-2.084;2022-08-30T09:22:00;7.40;;;2.58;;
64282;SDS011;50497;50.720;-2.084;2022-08-30T09:24:44;5.95;;;2.58;;
64282;SDS011;50497;50.720;-2.084;2022-08-30T09:27:14;9.07;;;2.60;;
64282;SDS011;50497;50.720;-2.084;2022-08-30T09:32:26;6.30;;;2.25;;
64282;SDS011;50497;50.720;-2.084;2022-08-30T09:34:57;6.25;;;2.13;;
64282;SDS011;50497;50.720;-2.084;2022-08-30T09:37:31;6.25;;;2.30;;
64282;SDS011;50497;50.720;-2.084;2022-08-30T09:40:01;6.45;;;2.38;;
64282;SDS011;50497;50.720;-2.084;2022-08-30T09:42:34;6.32;;;2.38;;
64282;SDS011;50497;50.720;-2.084;2022-08-30T09:44:59;7.15;;;2.45;;
64282;SDS011;50497;50.720;-2.084;2022-08-30T09:47:36;5.32;;;2.13;;
64282;SDS011;50497;50.720;-2.084;2022-08-30T09:50:10;8.68;;;2.50;;
64282;SDS011;50497;50.720;-2.084;2022-08-30T10:00:37;6.22;;;2.47;;
64282;SDS011;50497;50.720;-2.084;2022-08-30T10:06:17;7.15;;;2.42;;
64282;SDS011;50497;50.720;-2.084;2022-08-30T10:09:05;5.57;;;2.17;;
64282;SDS011;50497;50.720;-2.084;2022-08-30T10:20:08;6.05;;;2.28;;
64282;SDS011;50497;50.720;-2.084;2022-08-30T10:25:25;6.90;;;2.47;;
64282;SDS011;50497;50.720;-2.084;2022-08-30T10:30:35;5.78;;;2.08;;
64282;SDS011;50497;50.720;-2.084;2022-08-30T10:35:45;7.25;;;2.47;;
64282;SDS011;50497;50.720;-2.084;2022-08-30T10:40:43;6.90;;;2.55;;
64282;SDS011;50497;50.720;-2.084;2022-08-30T10:43:33;6.45;;;2.53;;
64282;SDS011;50497;50.720;-2.084;2022-08-30T10:46:38;6.35;;;2.38;;
64282;SDS011;50497;50.720;-2.084;2022-08-30T10:49:17;6.78;;;2.30;;
64282;SDS011;50497;50.720;-2.084;2022-08-30T10:54:47;6.47;;;2.20;;
64282;SDS011;50497;50.720;-2.084;2022-08-30T10:57:19;6.55;;;2.35;;
64282;SDS011;50497;50.720;-2.084;2022-08-30T10:59:47;7.50;;;2.70;;
64282;SDS011;50497;50.720;-2.084;2022-08-30T11:05:20;7.10;;;2.35;;
64282;SDS011;50497;50.720;-2.084;2022-08-30T11:13:40;7.53;;;2.40;;
64282;SDS011;50497;50.720;-2.084;2022-08-30T11:16:10;5.20;;;2.22;;
64282;SDS011;50497;50.720;-2.084;2022-08-30T11:24:09;6.63;;;2.47;;
64282;SDS011;50497;50.720;-2.084;2022-08-30T11:31:52;6.60;;;2.60;;
64282;SDS011;50497;50.720;-2.084;2022-08-30T11:37:10;5.78;;;2.50;;
64282;SDS011;50497;50.720;-2.084;2022-08-30T11:47:48;6.05;;;2.40;;
64282;SDS011;50497;50.720;-2.084;2022-08-30T11:58:14;6.78;;;2.38;;
64282;SDS011;50497;50.720;-2.084;2022-08-30T12:01:12;10.07;;;2.55;;
64282;SDS011;50497;50.720;-2.084;2022-08-30T12:03:52;5.13;;;2.47;;
64282;SDS011;50497;50.720;-2.084;2022-08-30T12:09:56;6.95;;;2.72;;
64282;SDS011;50497;50.720;-2.084;2022-08-30T12:14:36;6.32;;;2.90;;
64282;SDS011;50497;50.720;-2.084;2022-08-30T12:17:21;8.82;;;2.90;;
64282;SDS011;50497;50.720;-2.084;2022-08-30T12:20:31;7.63;;;2.60;;
64282;SDS011;50497;50.720;-2.084;2022-08-30T12:23:16;6.85;;;2.80;;
64282;SDS011;50497;50.720;-2.084;2022-08-30T12:25:56;7.45;;;2.72;;
64282;SDS011;50497;50.720;-2.084;2022-08-30T12:28:38;6.72;;;3.03;;
64282;SDS011;50497;50.720;-2.084;2022-08-30T12:31:05;7.10;;;3.05;;
64282;SDS011;50497;50.720;-2.084;2022-08-30T12:33:38;7.10;;;3.10;;
64282;SDS011;50497;50.720;-2.084;2022-08-30T12:36:29;7.40;;;3.03;;
64282;SDS011;50497;50.720;-2.084;2022-08-30T12:39:14;6.80;;;3.13;;
64282;SDS011;50497;50.720;-2.084;2022-08-30T12:41:52;7.50;;;3.47;;
64282;SDS011;50497;50.720;-2.084;2022-08-30T12:44:24;7.78;;;3.50;;
64282;SDS011;50497;50.720;-2.084;2022-08-30T12:46:55;9.13;;;3.30;;
64282;SDS011;50497;50.720;-2.084;2022-08-30T12:49:26;7.00;;;3.33;;
64282;SDS011;50497;50.720;-2.084;2022-08-30T12:51:56;9.10;;;3.72;;
64282;SDS011;50497;50.720;-2.084;2022-08-30T12:54:44;8.25;;;3.33;;
64282;SDS011;50497;50.720;-2.084;2022-08-30T12:57:33;8.52;;;3.50;;
64282;SDS011;50497;50.720;-2.084;2022-08-30T13:00:05;7.22;;;2.78;;
64282;SDS011;50497;50.720;-2.084;2022-08-30T13:08:17;7.68;;;3.40;;
64282;SDS011;50497;50.720;-2.084;2022-08-30T13:11:04;7.65;;;3.20;;
64282;SDS011;50497;50.720;-2.084;2022-08-30T13:13:44;8.48;;;3.25;;
64282;SDS011;50497;50.720;-2.084;2022-08-30T13:18:50;7.85;;;3.38;;
64282;SDS011;50497;50.720;-2.084;2022-08-30T13:21:21;7.55;;;3.42;;
64282;SDS011;50497;50.720;-2.084;2022-08-30T13:23:55;8.40;;;3.30;;
64282;SDS011;50497;50.720;-2.084;2022-08-30T13:26:25;7.80;;;3.22;;
64282;SDS011;50497;50.720;-2.084;2022-08-30T13:28:56;8.10;;;3.00;;
64282;SDS011;50497;50.720;-2.084;2022-08-30T13:31:28;6.00;;;3.10;;
64282;SDS011;50497;50.720;-2.084;2022-08-30T13:33:54;8.18;;;3.20;;
64282;SDS011;50497;50.720;-2.084;2022-08-30T13:36:41;6.45;;;3.20;;
64282;SDS011;50497;50.720;-2.084;2022-08-30T13:39:13;7.32;;;3.05;;
64282;SDS011;50497;50.720;-2.084;2022-08-30T13:41:43;6.82;;;3.30;;
64282;SDS011;50497;50.720;-2.084;2022-08-30T13:44:08;7.35;;;3.38;;
64282;SDS011;50497;50.720;-2.084;2022-08-30T13:46:35;9.02;;;3.28;;
64282;SDS011;50497;50.720;-2.084;2022-08-30T13:49:04;9.57;;;3.03;;
64282;SDS011;50497;50.720;-2.084;2022-08-30T13:51:34;7.18;;;3.20;;
64282;SDS011;50497;50.720;-2.084;2022-08-30T13:53:59;8.15;;;3.30;;
64282;SDS011;50497;50.720;-2.084;2022-08-30T13:56:26;7.03;;;3.03;;
64282;SDS011;50497;50.720;-2.084;2022-08-30T13:58:56;9.48;;;3.22;;
64282;SDS011;50497;50.720;-2.084;2022-08-30T14:01:29;10.20;;;3.67;;
64282;SDS011;50497;50.720;-2.084;2022-08-30T14:03:54;8.60;;;3.38;;
64282;SDS011;50497;50.720;-2.084;2022-08-30T14:06:21;8.95;;;3.85;;
64282;SDS011;50497;50.720;-2.084;2022-08-30T14:08:47;10.35;;;3.80;;
64282;SDS011;50497;50.720;-2.084;2022-08-30T14:11:18;9.32;;;3.75;;
64282;SDS011;50497;50.720;-2.084;2022-08-30T14:13:45;8.45;;;3.15;;
64282;SDS011;50497;50.720;-2.084;2022-08-30T14:16:11;7.00;;;3.05;;
64282;SDS011;50497;50.720;-2.084;2022-08-30T14:18:36;7.47;;;3.40;;
64282;SDS011;50497;50.720;-2.084;2022-08-30T14:21:02;6.55;;;3.03;;
64282;SDS011;50497;50.720;-2.084;2022-08-30T14:23:27;7.88;;;3.08;;
64282;SDS011;50497;50.720;-2.084;2022-08-30T14:25:55;7.70;;;3.05;;
64282;SDS011;50497;50.720;-2.084;2022-08-30T14:28:25;8.27;;;2.72;;
64282;SDS011;50497;50.720;-2.084;2022-08-30T14:30:54;11.75;;;3.78;;
64282;SDS011;50497;50.720;-2.084;2022-08-30T14:33:22;9.30;;;3.17;;
64282;SDS011;50497;50.720;-2.084;2022-08-30T14:35:48;8.85;;;3.20;;
64282;SDS011;50497;50.720;-2.084;2022-08-30T14:38:13;7.18;;;3.13;;
64282;SDS011;50497;50.720;-2.084;2022-08-30T14:40:39;7.13;;;3.00;;
64282;SDS011;50497;50.720;-2.084;2022-08-30T14:43:08;8.20;;;3.08;;
64282;SDS011;50497;50.720;-2.084;2022-08-30T14:45:38;6.75;;;2.97;;
64282;SDS011;50497;50.720;-2.084;2022-08-30T14:48:03;6.93;;;2.67;;
64282;SDS011;50497;50.720;-2.084;2022-08-30T14:50:34;7.32;;;3.00;;
64282;SDS011;50497;50.720;-2.084;2022-08-30T14:53:03;7.20;;;2.95;;
64282;SDS011;50497;50.720;-2.084;2022-08-30T14:55:30;8.82;;;3.00;;
64282;SDS011;50497;50.720;-2.084;2022-08-30T14:57:57;6.53;;;2.50;;
64282;SDS011;50497;50.720;-2.084;2022-08-30T15:00:22;7.30;;;2.80;;
64282;SDS011;50497;50.720;-2.084;2022-08-30T15:02:48;6.18;;;2.78;;
64282;SDS011;50497;50.720;-2.084;2022-08-30T15:05:18;8.50;;;2.72;;
64282;SDS011;50497;50.720;-2.084;2022-08-30T15:10:17;6.15;;;2.58;;
64282;SDS011;50497;50.720;-2.084;2022-08-30T15:12:46;5.47;;;2.60;;
64282;SDS011;50497;50.720;-2.084;2022-08-30T15:15:20;7.15;;;2.78;;
64282;SDS011;50497;50.720;-2.084;2022-08-30T15:17:47;5.70;;;2.67;;
64282;SDS011;50497;50.720;-2.084;2022-08-30T15:20:13;6.20;;;2.70;;
64282;SDS011;50497;50.720;-2.084;2022-08-30T15:22:42;5.88;;;2.60;;
64282;SDS011;50497;50.720;-2.084;2022-08-30T15:25:08;8.68;;;2.80;;
64282;SDS011;50497;50.720;-2.084;2022-08-30T15:27:35;6.55;;;2.75;;
64282;SDS011;50497;50.720;-2.084;2022-08-30T15:30:01;7.75;;;2.90;;
64282;SDS011;50497;50.720;-2.084;2022-08-30T15:32:27;6.07;;;2.45;;
64282;SDS011;50497;50.720;-2.084;2022-08-30T15:34:52;5.75;;;2.65;;
64282;SDS011;50497;50.720;-2.084;2022-08-30T15:37:25;7.18;;;2.40;;
64282;SDS011;50497;50.720;-2.084;2022-08-30T15:39:54;6.95;;;2.30;;
64282;SDS011;50497;50.720;-2.084;2022-08-30T15:42:23;5.60;;;2.42;;
64282;SDS011;50497;50.720;-2.084;2022-08-30T15:44:50;7.32;;;2.60;;
64282;SDS011;50497;50.720;-2.084;2022-08-30T15:47:25;8.32;;;2.67;;
64282;SDS011;50497;50.720;-2.084;2022-08-30T15:49:54;6.40;;;2.80;;
64282;SDS011;50497;50.720;-2.084;2022-08-30T15:52:21;6.13;;;2.53;;
64282;SDS011;50497;50.720;-2.084;2022-08-30T15:54:47;6.30;;;2.58;;
64282;SDS011;50497;50.720;-2.084;2022-08-30T15:57:13;7.57;;;2.50;;
64282;SDS011;50497;50.720;-2.084;2022-08-30T15:59:38;4.95;;;2.35;;
64282;SDS011;50497;50.720;-2.084;2022-08-30T16:02:04;6.38;;;2.50;;
64282;SDS011;50497;50.720;-2.084;2022-08-30T16:04:29;7.68;;;2.75;;
64282;SDS011;50497;50.720;-2.084;2022-08-30T16:06:56;6.15;;;2.40;;
64282;SDS011;50497;50.720;-2.084;2022-08-30T16:09:21;6.60;;;2.50;;
64282;SDS011;50497;50.720;-2.084;2022-08-30T16:11:51;5.30;;;2.22;;
64282;SDS011;50497;50.720;-2.084;2022-08-30T16:14:17;7.30;;;2.70;;
64282;SDS011;50497;50.720;-2.084;2022-08-30T16:16:44;7.82;;;2.60;;
64282;SDS011;50497;50.720;-2.084;2022-08-30T16:19:12;6.45;;;2.50;;
64282;SDS011;50497;50.720;-2.084;2022-08-30T16:21:39;5.97;;;2.80;;
64282;SDS011;50497;50.720;-2.084;2022-08-30T16:24:08;5.53;;;2.40;;
64282;SDS011;50497;50.720;-2.084;2022-08-30T16:26:36;5.32;;;2.28;;
64282;SDS011;50497;50.720;-2.084;2022-08-30T16:29:03;6.32;;;2.40;;
64282;SDS011;50497;50.720;-2.084;2022-08-30T16:31:31;8.02;;;2.78;;
64282;SDS011;50497;50.720;-2.084;2022-08-30T16:33:57;7.05;;;2.40;;
64282;SDS011;50497;50.720;-2.084;2022-08-30T16:36:26;6.93;;;2.45;;
64282;SDS011;50497;50.720;-2.084;2022-08-30T16:38:52;5.82;;;2.25;;
64282;SDS011;50497;50.720;-2.084;2022-08-30T16:41:22;7.72;;;2.55;;